createdAt,value
2023-04-12T00:01:29.682Z,24.60
2023-04-12T00:03:57.497Z,33.85
2023-04-12T00:06:27.765Z,28.60
2023-04-12T00:08:56.201Z,30.42
2023-04-12T00:11:26.128Z,32.05
2023-04-12T00:13:53.680Z,29.88
2023-04-12T00:16:23.854Z,32.10
2023-04-12T00:18:51.638Z,29.98
2023-04-12T00:21:19.867Z,29.65
2023-04-12T00:23:47.609Z,29.70
2023-04-12T00:26:16.002Z,31.80
2023-04-12T00:28:45.044Z,30.45
2023-04-12T00:31:12.833Z,28.75
2023-04-12T00:33:40.441Z,24.08
2023-04-12T00:36:08.572Z,28.42
2023-04-12T00:38:36.698Z,29.02
2023-04-12T00:41:04.824Z,28.40
2023-04-12T00:43:32.485Z,29.35
2023-04-12T00:46:00.320Z,27.65
2023-04-12T00:48:28.984Z,25.67
2023-04-12T00:50:57.781Z,26.17
2023-04-12T00:53:25.721Z,30.13
2023-04-12T00:55:54.629Z,26.83
2023-04-12T00:58:26.904Z,29.65
2023-04-12T01:00:54.885Z,32.83
2023-04-12T01:03:27.838Z,34.72
2023-04-12T01:06:21.793Z,26.63
2023-04-12T01:09:01.615Z,24.02
2023-04-12T01:11:34.895Z,28.67
2023-04-12T01:14:16.084Z,24.27
2023-04-12T01:16:47.901Z,34.03
2023-04-12T01:19:54.216Z,27.73
2023-04-12T01:22:54.888Z,36.78
2023-04-12T01:25:39.488Z,25.45
2023-04-12T01:28:14.905Z,29.15
2023-04-12T01:30:43.566Z,23.63
2023-04-12T01:33:12.591Z,32.38
2023-04-12T01:35:44.287Z,43.28
2023-04-12T01:38:12.015Z,31.00
2023-04-12T01:40:42.600Z,32.97
2023-04-12T01:43:12.588Z,34.15
2023-04-12T01:45:40.695Z,32.60
2023-04-12T01:48:10.117Z,34.88
2023-04-12T01:51:04.997Z,33.28
2023-04-12T01:53:48.238Z,37.50
2023-04-12T01:56:18.691Z,31.63
2023-04-12T01:58:48.772Z,34.55
2023-04-12T02:01:19.297Z,36.63
2023-04-12T02:03:51.788Z,40.40
2023-04-12T02:06:21.065Z,34.75
2023-04-12T02:08:48.960Z,33.40
2023-04-12T02:11:16.825Z,38.40
2023-04-12T02:13:45.207Z,45.78
2023-04-12T02:16:34.344Z,34.22
2023-04-12T02:19:02.240Z,42.70
2023-04-12T02:21:39.052Z,32.35
2023-04-12T02:24:06.662Z,28.70
2023-04-12T02:26:34.158Z,45.50
2023-04-12T02:29:01.885Z,26.10
2023-04-12T02:31:30.752Z,32.83
2023-04-12T02:33:58.868Z,38.83
2023-04-12T02:36:26.708Z,36.88
2023-04-12T02:38:54.589Z,31.57
2023-04-12T02:41:23.019Z,35.78
2023-04-12T02:43:51.181Z,50.38
2023-04-12T02:46:27.395Z,45.33
2023-04-12T02:48:59.512Z,29.95
2023-04-12T02:51:41.824Z,36.90
2023-04-12T02:54:10.410Z,36.63
2023-04-12T02:56:50.124Z,37.30
2023-04-12T02:59:39.908Z,30.42
2023-04-12T03:02:20.642Z,30.35
2023-04-12T03:04:50.948Z,40.77
2023-04-12T03:07:23.613Z,42.15
2023-04-12T03:09:52.842Z,44.95
2023-04-12T03:12:23.091Z,40.67
2023-04-12T03:15:05.541Z,43.63
2023-04-12T03:17:33.077Z,38.42
2023-04-12T03:20:10.232Z,48.97
2023-04-12T03:22:41.448Z,43.22
2023-04-12T03:25:12.788Z,49.13
2023-04-12T03:27:47.760Z,39.72
2023-04-12T03:30:19.332Z,50.45
2023-04-12T03:32:47.872Z,48.15
2023-04-12T03:35:15.733Z,56.25
2023-04-12T03:37:43.985Z,52.03
2023-04-12T03:40:13.298Z,53.92
2023-04-12T03:42:45.953Z,49.28
2023-04-12T03:45:15.698Z,66.82
2023-04-12T03:47:48.074Z,58.53
2023-04-12T03:50:17.456Z,56.35
2023-04-12T03:52:51.698Z,45.63
2023-04-12T03:55:19.378Z,43.53
2023-04-12T03:57:50.691Z,63.58
2023-04-12T04:00:20.191Z,46.08
2023-04-12T04:03:09.104Z,47.67
2023-04-12T04:05:45.378Z,43.20
2023-04-12T04:08:14.494Z,40.90
2023-04-12T04:10:52.563Z,57.85
2023-04-12T04:13:23.164Z,45.72
2023-04-12T04:16:06.054Z,45.53
2023-04-12T04:18:36.074Z,46.95
2023-04-12T04:21:07.478Z,43.25
2023-04-12T04:23:45.117Z,44.80
2023-04-12T04:28:51.903Z,44.88
2023-04-12T04:31:26.379Z,45.28
2023-04-12T04:33:54.439Z,34.30
2023-04-12T04:36:30.095Z,41.00
2023-04-12T04:38:58.292Z,40.45
2023-04-12T04:41:41.539Z,43.38
2023-04-12T04:44:19.543Z,45.00
2023-04-12T04:46:55.060Z,37.13
2023-04-12T04:49:22.571Z,50.30
2023-04-12T04:51:50.567Z,36.67
2023-04-12T04:54:19.226Z,34.75
2023-04-12T04:56:46.705Z,46.50
2023-04-12T04:59:17.970Z,39.97
2023-04-12T05:01:45.819Z,47.20
2023-04-12T05:04:17.017Z,40.97
2023-04-12T05:06:46.026Z,40.42
2023-04-12T05:09:16.252Z,36.15
2023-04-12T05:11:49.096Z,39.17
2023-04-12T05:14:17.062Z,45.55
2023-04-12T05:16:44.652Z,46.50
2023-04-12T05:19:12.259Z,43.70
2023-04-12T05:21:40.808Z,58.58
2023-04-12T05:24:08.873Z,39.15
2023-04-12T05:26:38.798Z,34.55
2023-04-12T05:29:12.066Z,41.75
2023-04-12T05:31:39.735Z,32.17
2023-04-12T05:34:13.378Z,37.85
2023-04-12T05:36:51.205Z,30.42
2023-04-12T05:39:20.698Z,33.60
2023-04-12T05:41:49.564Z,26.73
2023-04-12T05:44:17.086Z,29.85
2023-04-12T05:46:45.796Z,22.25
2023-04-12T05:49:13.751Z,29.75
2023-04-12T05:51:41.885Z,17.65
2023-04-12T05:54:21.288Z,22.17
2023-04-12T05:56:55.222Z,18.45
2023-04-12T05:59:23.878Z,24.85
2023-04-12T06:01:52.113Z,24.48
2023-04-12T06:04:25.162Z,18.08
2023-04-12T06:06:57.881Z,15.10
2023-04-12T06:09:25.461Z,13.48
2023-04-12T06:11:53.922Z,12.55
2023-04-12T06:14:21.446Z,18.23
2023-04-12T06:16:49.274Z,17.45
2023-04-12T06:19:17.238Z,17.92
2023-04-12T06:21:44.818Z,17.38
2023-04-12T06:24:12.608Z,17.35
2023-04-12T06:26:43.180Z,16.58
2023-04-12T06:29:10.962Z,21.35
2023-04-12T06:31:38.537Z,20.65
2023-04-12T06:34:07.319Z,20.05
2023-04-12T06:36:40.284Z,16.35
2023-04-12T06:39:09.432Z,14.88
2023-04-12T06:41:37.149Z,16.65
2023-04-12T06:44:04.949Z,15.27
2023-04-12T06:46:32.641Z,15.93
2023-04-12T06:49:00.393Z,15.90
2023-04-12T06:51:28.403Z,15.45
2023-04-12T06:53:57.796Z,22.92
2023-04-12T06:56:25.360Z,13.18
2023-04-12T06:58:53.042Z,18.33
2023-04-12T07:01:20.793Z,16.50
2023-04-12T07:03:48.456Z,21.08
2023-04-12T07:06:24.946Z,21.23
2023-04-12T07:08:53.460Z,17.88
2023-04-12T07:11:24.116Z,20.40
2023-04-12T07:13:51.821Z,19.90
2023-04-12T07:16:19.575Z,21.13
2023-04-12T07:18:47.718Z,17.60
2023-04-12T07:21:17.576Z,16.08
2023-04-12T07:23:46.719Z,14.07
2023-04-12T07:26:14.343Z,12.23
2023-04-12T07:28:42.081Z,18.80
2023-04-12T07:31:09.609Z,16.70
2023-04-12T07:33:38.841Z,20.83
2023-04-12T07:36:08.612Z,15.45
2023-04-12T07:38:36.217Z,12.93
2023-04-12T07:41:03.853Z,16.50
2023-04-12T07:43:31.478Z,12.63
2023-04-12T07:45:59.679Z,12.35
2023-04-12T07:48:27.239Z,16.48
2023-04-12T07:50:54.783Z,18.50
2023-04-12T07:53:24.408Z,18.95
2023-04-12T07:55:52.238Z,17.73
2023-04-12T07:58:22.782Z,16.92
2023-04-12T08:00:51.152Z,17.48
2023-04-12T08:03:19.509Z,17.25
2023-04-12T08:05:49.633Z,13.23
2023-04-12T08:08:17.281Z,17.20
2023-04-12T08:10:50.474Z,13.23
2023-04-12T08:13:19.755Z,16.63
2023-04-12T08:15:50.400Z,12.63
2023-04-12T08:18:18.027Z,14.95
2023-04-12T08:20:45.737Z,17.25
2023-04-12T08:23:15.808Z,18.00
2023-04-12T08:25:43.329Z,19.67
2023-04-12T08:28:10.804Z,16.05
2023-04-12T08:30:38.432Z,14.10
2023-04-12T08:33:06.045Z,11.13
2023-04-12T08:35:33.963Z,11.20
2023-04-12T08:38:07.439Z,13.63
2023-04-12T08:40:35.797Z,9.25
2023-04-12T08:43:08.249Z,11.38
2023-04-12T08:45:36.399Z,8.43
2023-04-12T08:48:06.207Z,7.68
2023-04-12T08:50:34.469Z,7.35
2023-04-12T08:53:03.134Z,7.82
2023-04-12T08:55:30.745Z,11.00
2023-04-12T08:57:59.235Z,8.90
2023-04-12T09:00:27.706Z,8.05
2023-04-12T09:02:55.293Z,9.50
2023-04-12T09:05:29.949Z,15.02
2023-04-12T09:07:58.732Z,17.60
2023-04-12T09:10:38.076Z,14.18
2023-04-12T09:13:06.803Z,13.75
2023-04-12T09:15:35.017Z,14.10
2023-04-12T09:18:08.457Z,10.13
2023-04-12T09:20:36.768Z,13.07
2023-04-12T09:23:21.596Z,12.38
2023-04-12T09:25:51.947Z,11.63
2023-04-12T09:28:24.100Z,11.05
2023-04-12T09:30:56.544Z,15.60
2023-04-12T09:33:44.501Z,8.73
2023-04-12T09:36:17.524Z,6.22
2023-04-12T09:39:06.149Z,9.05
2023-04-12T09:41:34.294Z,10.30
2023-04-12T09:44:02.732Z,7.75
2023-04-12T09:46:30.904Z,10.15
2023-04-12T09:49:00.875Z,11.10
2023-04-12T09:51:31.462Z,11.20
2023-04-12T09:54:01.578Z,6.78
2023-04-12T09:56:36.755Z,9.77
2023-04-12T09:59:06.885Z,8.75
2023-04-12T10:01:38.438Z,5.70
2023-04-12T10:04:08.768Z,11.18
2023-04-12T10:06:37.503Z,6.63
2023-04-12T10:09:06.812Z,10.48
2023-04-12T10:11:34.821Z,8.23
2023-04-12T10:14:06.245Z,7.45
2023-04-12T10:16:35.180Z,5.93
2023-04-12T10:19:04.239Z,5.97
2023-04-12T10:21:32.045Z,7.65
2023-04-12T10:24:00.715Z,8.52
2023-04-12T10:26:28.443Z,5.72
2023-04-12T10:29:27.889Z,8.80
2023-04-12T10:31:57.270Z,7.68
2023-04-12T10:34:31.230Z,11.05
2023-04-12T10:37:00.665Z,6.35
2023-04-12T10:39:47.333Z,10.10
2023-04-12T10:42:24.025Z,9.98
2023-04-12T10:44:53.371Z,8.60
2023-04-12T10:47:50.350Z,10.80
2023-04-12T10:50:24.569Z,7.47
2023-04-12T10:53:12.496Z,8.52
2023-04-12T10:55:41.356Z,6.00
2023-04-12T10:58:09.415Z,6.60
2023-04-12T11:00:58.843Z,7.68
2023-04-12T11:03:28.514Z,9.55
2023-04-12T11:06:16.308Z,15.55
2023-04-12T11:09:25.624Z,6.03
2023-04-12T11:11:58.094Z,8.00
2023-04-12T11:14:30.155Z,7.95
2023-04-12T11:17:06.625Z,6.63
2023-04-12T11:19:34.665Z,7.30
2023-04-12T11:22:04.478Z,9.35
2023-04-12T11:24:32.202Z,11.40
2023-04-12T11:27:00.990Z,7.53
2023-04-12T11:29:32.677Z,5.65
2023-04-12T11:32:03.558Z,7.90
2023-04-12T11:34:35.353Z,8.75
2023-04-12T11:37:10.479Z,11.32
2023-04-12T11:39:43.582Z,6.20
2023-04-12T11:42:23.223Z,9.45
2023-04-12T11:47:27.532Z,8.68
2023-04-12T11:49:57.271Z,6.03
2023-04-12T11:52:32.571Z,7.15
2023-04-12T11:55:07.021Z,12.18
2023-04-12T11:57:35.454Z,9.45
2023-04-12T12:00:06.790Z,13.90
2023-04-12T12:02:49.396Z,10.98
2023-04-12T12:05:24.840Z,8.68
2023-04-12T12:07:55.164Z,9.90
2023-04-12T12:10:41.724Z,8.65
2023-04-12T12:13:12.263Z,7.63
2023-04-12T12:15:45.076Z,8.63
2023-04-12T12:18:12.871Z,13.40
2023-04-12T12:20:49.078Z,10.48
2023-04-12T12:23:28.822Z,8.07
2023-04-12T12:26:18.840Z,7.25
2023-04-12T12:28:55.150Z,8.27
2023-04-12T12:33:59.436Z,9.82
2023-04-12T12:36:32.847Z,10.43
2023-04-12T12:39:10.637Z,11.23
2023-04-12T12:41:40.089Z,12.43
2023-04-12T12:44:08.298Z,7.88
2023-04-12T12:49:06.847Z,6.18
2023-04-12T12:51:34.346Z,13.23
2023-04-12T12:54:01.845Z,6.28
2023-04-12T12:56:30.396Z,12.55
2023-04-12T12:58:58.010Z,6.93
2023-04-12T13:01:27.072Z,12.18
2023-04-12T13:03:54.948Z,11.73
2023-04-12T13:06:23.253Z,7.13
2023-04-12T13:08:52.356Z,10.27
2023-04-12T13:11:22.617Z,6.88
2023-04-12T13:13:50.255Z,12.48
2023-04-12T13:16:17.881Z,7.32
2023-04-12T13:18:45.601Z,13.63
2023-04-12T13:21:13.193Z,6.45
2023-04-12T13:23:40.673Z,12.15
2023-04-12T13:26:08.224Z,8.73
2023-04-12T13:28:35.729Z,7.72
2023-04-12T13:31:03.664Z,9.23
2023-04-12T13:33:31.220Z,14.77
2023-04-12T13:35:58.762Z,7.97
2023-04-12T13:38:26.711Z,11.00
2023-04-12T13:40:56.686Z,7.65
2023-04-12T13:43:24.295Z,9.20
2023-04-12T13:45:52.132Z,7.80
2023-04-12T13:48:19.993Z,10.45
2023-04-12T13:50:49.681Z,10.93
2023-04-12T13:53:18.469Z,11.75
2023-04-12T13:55:46.516Z,10.10
2023-04-12T13:58:14.379Z,10.63
2023-04-12T14:00:41.896Z,9.82
2023-04-12T14:03:09.543Z,14.07
2023-04-12T14:05:37.118Z,11.20
2023-04-12T14:08:04.811Z,16.88
2023-04-12T14:10:32.285Z,11.85
2023-04-12T14:13:00.555Z,15.00
2023-04-12T14:15:28.175Z,13.70
2023-04-12T14:17:56.184Z,13.00
2023-04-12T14:20:24.122Z,9.13
2023-04-12T14:22:51.761Z,11.40
2023-04-12T14:25:19.421Z,11.40
2023-04-12T14:27:46.941Z,8.07
2023-04-12T14:30:16.355Z,12.75
2023-04-12T14:32:47.316Z,10.98
2023-04-12T14:35:15.464Z,12.35
2023-04-12T14:37:43.127Z,13.45
2023-04-12T14:40:10.702Z,12.30
2023-04-12T14:42:38.700Z,10.18
2023-04-12T14:45:08.272Z,11.05
2023-04-12T14:47:36.043Z,12.57
2023-04-12T14:50:04.486Z,13.75
2023-04-12T14:52:32.301Z,10.45
2023-04-12T14:55:01.494Z,12.27
2023-04-12T14:57:29.589Z,18.45
2023-04-12T14:59:57.132Z,13.43
2023-04-12T15:02:26.371Z,12.98
2023-04-12T15:04:57.392Z,15.45
2023-04-12T15:07:25.598Z,12.68
2023-04-12T15:09:57.476Z,15.63
2023-04-12T15:12:25.028Z,17.08
2023-04-12T15:14:54.059Z,16.65
2023-04-12T15:17:21.792Z,14.82
2023-04-12T15:19:49.424Z,14.20
2023-04-12T15:22:16.901Z,11.60
2023-04-12T15:24:44.370Z,14.25
2023-04-12T15:27:11.961Z,10.70
2023-04-12T15:29:39.960Z,11.88
2023-04-12T15:32:08.813Z,12.55
2023-04-12T15:34:36.602Z,16.23
2023-04-12T15:37:05.387Z,10.55
2023-04-12T15:39:33.158Z,11.52
2023-04-12T15:42:01.194Z,14.23
2023-04-12T15:44:32.130Z,13.13
2023-04-12T15:47:10.864Z,10.25
2023-04-12T15:49:42.018Z,13.60
2023-04-12T15:52:09.868Z,13.05
2023-04-12T15:54:43.728Z,12.63
2023-04-12T15:57:11.742Z,12.73
2023-04-12T15:59:40.774Z,14.68
2023-04-12T16:02:10.177Z,18.02
2023-04-12T16:04:38.370Z,18.50
2023-04-12T16:07:06.183Z,16.90
2023-04-12T16:09:34.986Z,7.82
2023-04-12T16:12:02.653Z,18.50
2023-04-12T16:14:30.261Z,17.75
2023-04-12T16:17:02.259Z,17.00
2023-04-12T16:19:30.002Z,21.33
2023-04-12T16:21:58.166Z,15.02
2023-04-12T16:24:25.970Z,19.88
2023-04-12T16:26:53.759Z,19.08
2023-04-12T16:29:21.907Z,15.70
2023-04-12T16:31:49.737Z,16.05
2023-04-12T16:34:21.481Z,25.58
2023-04-12T16:36:49.707Z,16.63
2023-04-12T16:39:17.721Z,22.42
2023-04-12T16:41:47.201Z,26.05
2023-04-12T16:44:18.945Z,24.42
2023-04-12T16:46:48.264Z,19.90
2023-04-12T16:49:19.055Z,23.45
2023-04-12T16:51:49.875Z,29.35
2023-04-12T16:54:17.920Z,20.40
2023-04-12T16:56:47.894Z,24.35
2023-04-12T16:59:15.752Z,24.65
2023-04-12T17:01:44.445Z,29.60
2023-04-12T17:04:13.386Z,27.95
2023-04-12T17:06:44.998Z,27.90
2023-04-12T17:09:12.872Z,18.35
2023-04-12T17:11:40.800Z,25.02
2023-04-12T17:14:09.725Z,19.38
2023-04-12T17:16:38.507Z,14.40
2023-04-12T17:19:06.874Z,19.42
2023-04-12T17:21:42.240Z,19.08
2023-04-12T17:24:11.034Z,25.33
2023-04-12T17:26:38.981Z,19.50
2023-04-12T17:29:09.628Z,19.33
2023-04-12T17:31:37.809Z,19.73
2023-04-12T17:34:05.884Z,28.70
2023-04-12T17:36:34.088Z,30.38
2023-04-12T17:39:04.549Z,25.80
2023-04-12T17:41:32.221Z,31.55
2023-04-12T17:44:00.100Z,30.50
2023-04-12T17:46:27.781Z,31.67
2023-04-12T17:48:55.562Z,35.40
2023-04-12T17:51:23.350Z,28.95
2023-04-12T17:53:50.784Z,20.80
2023-04-12T17:56:18.853Z,24.10
2023-04-12T17:58:46.821Z,21.58
2023-04-12T18:01:14.515Z,21.95
2023-04-12T18:03:42.587Z,31.20
2023-04-12T18:06:10.323Z,26.40
2023-04-12T18:08:38.617Z,32.30
2023-04-12T18:11:07.780Z,24.00
2023-04-12T18:13:36.853Z,28.02
2023-04-12T18:16:04.855Z,29.85
2023-04-12T18:18:32.533Z,31.42
2023-04-12T18:21:03.910Z,39.03
2023-04-12T18:23:32.590Z,24.65
2023-04-12T18:26:00.248Z,23.42
2023-04-12T18:28:31.595Z,28.05
2023-04-12T18:31:02.362Z,20.17
2023-04-12T18:33:33.148Z,19.58
2023-04-12T18:36:04.072Z,23.25
2023-04-12T18:38:35.686Z,28.02
2023-04-12T18:41:04.598Z,28.35
2023-04-12T18:43:33.325Z,31.35
2023-04-12T18:46:01.657Z,37.22
2023-04-12T18:48:30.512Z,43.47
2023-04-12T18:50:59.532Z,25.15
2023-04-12T18:53:27.180Z,30.30
2023-04-12T18:55:54.716Z,31.77
2023-04-12T18:58:23.559Z,26.67
2023-04-12T19:00:51.631Z,24.92
2023-04-12T19:03:19.481Z,20.13
2023-04-12T19:05:47.232Z,19.00
2023-04-12T19:08:15.289Z,23.42
2023-04-12T19:10:43.000Z,22.83
2023-04-12T19:13:11.423Z,28.63
2023-04-12T19:15:39.338Z,24.13
2023-04-12T19:18:07.277Z,20.83
2023-04-12T19:20:34.834Z,24.10
2023-04-12T19:23:03.480Z,26.85
2023-04-12T19:25:33.109Z,18.17
2023-04-12T19:28:01.258Z,15.65
2023-04-12T19:30:31.845Z,25.60
2023-04-12T19:33:00.281Z,17.17
2023-04-12T19:35:32.842Z,17.95
2023-04-12T19:38:00.497Z,16.60
2023-04-12T19:40:30.421Z,14.75
2023-04-12T19:42:58.938Z,15.57
2023-04-12T19:45:27.776Z,21.73
2023-04-12T19:47:55.384Z,19.55
2023-04-12T19:50:23.162Z,14.63
2023-04-12T19:52:50.670Z,19.90
2023-04-12T19:55:21.459Z,16.52
2023-04-12T19:57:49.243Z,17.17
2023-04-12T20:00:20.657Z,23.92
2023-04-12T20:02:53.373Z,17.40
2023-04-12T20:05:24.218Z,17.60
2023-04-12T20:07:52.810Z,18.42
2023-04-12T20:10:20.605Z,27.73
2023-04-12T20:12:48.166Z,17.55
2023-04-12T20:15:17.718Z,23.50
2023-04-12T20:17:45.981Z,24.92
2023-04-12T20:20:16.165Z,27.27
2023-04-12T20:22:46.306Z,21.30
2023-04-12T20:25:15.212Z,24.63
2023-04-12T20:27:44.760Z,21.67
2023-04-12T20:30:16.935Z,24.70
2023-04-12T20:32:44.853Z,20.55
2023-04-12T20:35:14.210Z,17.77
2023-04-12T20:37:42.090Z,17.35
2023-04-12T20:40:10.314Z,26.50
2023-04-12T20:42:37.959Z,29.05
2023-04-12T20:45:05.886Z,19.35
2023-04-12T20:47:34.814Z,21.40
2023-04-12T20:50:02.682Z,17.15
2023-04-12T20:52:31.246Z,30.58
2023-04-12T20:54:58.812Z,19.48
2023-04-12T20:57:27.682Z,22.35
2023-04-12T20:59:55.477Z,13.98
2023-04-12T21:02:23.158Z,25.38
2023-04-12T21:04:50.953Z,19.52
2023-04-12T21:07:20.295Z,14.90
2023-04-12T21:09:48.444Z,15.13
2023-04-12T21:12:17.678Z,14.63
2023-04-12T21:14:45.362Z,17.30
2023-04-12T21:17:13.283Z,11.98
2023-04-12T21:19:41.912Z,18.23
2023-04-12T21:22:09.497Z,14.98
2023-04-12T21:24:39.795Z,20.00
2023-04-12T21:27:08.439Z,14.05
2023-04-12T21:29:41.175Z,17.88
2023-04-12T21:32:09.648Z,18.90
2023-04-12T21:34:37.622Z,20.27
2023-04-12T21:37:05.597Z,14.63
2023-04-12T21:39:33.329Z,17.55
2023-04-12T21:42:01.719Z,21.45
2023-04-12T21:44:30.977Z,18.10
2023-04-12T21:46:58.527Z,17.52
2023-04-12T21:49:25.968Z,24.50
2023-04-12T21:51:57.038Z,20.98
2023-04-12T21:54:24.491Z,20.30
2023-04-12T21:56:51.974Z,19.85
2023-04-12T21:59:19.396Z,16.20
2023-04-12T22:01:47.022Z,17.75
2023-04-12T22:04:14.550Z,18.10
2023-04-12T22:06:44.614Z,21.17
2023-04-12T22:09:12.490Z,23.02
2023-04-12T22:11:40.188Z,22.75
2023-04-12T22:14:07.962Z,20.90
2023-04-12T22:16:35.433Z,17.23
2023-04-12T22:19:02.962Z,20.65
2023-04-12T22:21:31.054Z,24.52
2023-04-12T22:23:58.982Z,15.32
2023-04-12T22:26:26.761Z,23.65
2023-04-12T22:28:54.373Z,17.90
2023-04-12T22:31:22.451Z,22.15
2023-04-12T22:33:50.010Z,18.08
2023-04-12T22:36:17.768Z,27.83
2023-04-12T22:38:47.578Z,19.77
2023-04-12T22:41:18.434Z,16.80
2023-04-12T22:43:47.820Z,13.68
2023-04-12T22:46:18.842Z,22.52
2023-04-12T22:48:48.094Z,13.50
2023-04-12T22:51:15.808Z,17.52
2023-04-12T22:53:46.619Z,13.95
2023-04-12T22:56:14.140Z,15.32
2023-04-12T22:58:42.980Z,19.95
2023-04-12T23:01:10.937Z,24.73
2023-04-12T23:03:38.599Z,22.95
2023-04-12T23:06:06.302Z,20.85
2023-04-12T23:08:37.205Z,14.50
2023-04-12T23:11:05.176Z,21.33
2023-04-12T23:13:35.806Z,18.33
2023-04-12T23:16:03.764Z,18.95
2023-04-12T23:18:32.872Z,20.58
2023-04-12T23:21:01.824Z,20.65
2023-04-12T23:23:29.821Z,15.35
2023-04-12T23:25:57.307Z,16.92
2023-04-12T23:28:26.718Z,20.13
2023-04-12T23:30:54.379Z,13.27
2023-04-12T23:33:22.085Z,17.40
2023-04-12T23:36:02.749Z,16.15
2023-04-12T23:38:38.648Z,19.48
2023-04-12T23:41:07.527Z,20.00
2023-04-12T23:43:35.240Z,19.50
2023-04-12T23:46:03.280Z,18.15
2023-04-12T23:48:35.368Z,23.27
2023-04-12T23:51:03.114Z,24.55
2023-04-12T23:53:30.848Z,21.92
2023-04-12T23:55:58.856Z,14.80
2023-04-12T23:58:26.704Z,15.02
